sensor_id;sensor_type;location;lat;lon;timestamp;P1;durP1;ratioP1;P2;durP2;ratioP2
66567;SDS011;53422;49.296;6.900;2022-09-25T00:00:56;13.13;;;5.50;;
66567;SDS011;53422;49.296;6.900;2022-09-25T00:03:24;9.48;;;5.18;;
66567;SDS011;53422;49.296;6.900;2022-09-25T00:05:51;9.02;;;5.13;;
66567;SDS011;53422;49.296;6.900;2022-09-25T00:08:18;9.60;;;5.07;;
66567;SDS011;53422;49.296;6.900;2022-09-25T00:10:48;9.65;;;4.88;;
66567;SDS011;53422;49.296;6.900;2022-09-25T00:13:16;10.07;;;5.50;;
66567;SDS011;53422;49.296;6.900;2022-09-25T00:15:46;8.98;;;5.07;;
66567;SDS011;53422;49.296;6.900;2022-09-25T00:18:14;8.27;;;5.35;;
66567;SDS011;53422;49.296;6.900;2022-09-25T00:20:40;10.07;;;5.65;;
66567;SDS011;53422;49.296;6.900;2022-09-25T00:23:06;7.93;;;4.97;;
66567;SDS011;53422;49.296;6.900;2022-09-25T00:25:31;9.82;;;4.93;;
66567;SDS011;53422;49.296;6.900;2022-09-25T00:27:57;8.88;;;4.95;;
66567;SDS011;53422;49.296;6.900;2022-09-25T00:30:22;8.98;;;4.55;;
66567;SDS011;53422;49.296;6.900;2022-09-25T00:32:48;9.85;;;5.28;;
66567;SDS011;53422;49.296;6.900;2022-09-25T00:35:14;9.05;;;4.97;;
66567;SDS011;53422;49.296;6.900;2022-09-25T00:37:39;9.27;;;4.22;;
66567;SDS011;53422;49.296;6.900;2022-09-25T00:40:05;10.90;;;4.88;;
66567;SDS011;53422;49.296;6.900;2022-09-25T00:42:31;10.23;;;4.65;;
66567;SDS011;53422;49.296;6.900;2022-09-25T00:45:00;9.52;;;4.47;;
66567;SDS011;53422;49.296;6.900;2022-09-25T00:50:33;7.47;;;4.95;;
66567;SDS011;53422;49.296;6.900;2022-09-25T00:53:23;8.43;;;4.63;;
66567;SDS011;53422;49.296;6.900;2022-09-25T00:55:55;9.40;;;5.10;;
66567;SDS011;53422;49.296;6.900;2022-09-25T00:58:23;11.27;;;5.53;;
66567;SDS011;53422;49.296;6.900;2022-09-25T01:00:51;11.13;;;5.45;;
66567;SDS011;53422;49.296;6.900;2022-09-25T01:03:18;9.77;;;5.18;;
66567;SDS011;53422;49.296;6.900;2022-09-25T01:05:45;10.52;;;4.70;;
66567;SDS011;53422;49.296;6.900;2022-09-25T01:08:13;8.63;;;4.72;;
66567;SDS011;53422;49.296;6.900;2022-09-25T01:10:42;7.65;;;4.70;;
66567;SDS011;53422;49.296;6.900;2022-09-25T01:13:08;7.40;;;4.25;;
66567;SDS011;53422;49.296;6.900;2022-09-25T01:15:37;8.90;;;4.85;;
66567;SDS011;53422;49.296;6.900;2022-09-25T01:26:11;10.07;;;5.18;;
66567;SDS011;53422;49.296;6.900;2022-09-25T01:28:59;9.52;;;5.22;;
66567;SDS011;53422;49.296;6.900;2022-09-25T01:39:45;8.95;;;5.35;;
66567;SDS011;53422;49.296;6.900;2022-09-25T01:42:19;9.18;;;5.00;;
66567;SDS011;53422;49.296;6.900;2022-09-25T01:45:05;8.68;;;5.13;;
66567;SDS011;53422;49.296;6.900;2022-09-25T01:47:34;9.63;;;5.28;;
66567;SDS011;53422;49.296;6.900;2022-09-25T01:50:04;9.95;;;5.18;;
66567;SDS011;53422;49.296;6.900;2022-09-25T01:52:37;9.10;;;4.43;;
66567;SDS011;53422;49.296;6.900;2022-09-25T01:55:09;10.55;;;5.20;;
66567;SDS011;53422;49.296;6.900;2022-09-25T01:57:41;9.95;;;4.72;;
66567;SDS011;53422;49.296;6.900;2022-09-25T02:00:21;9.57;;;5.00;;
66567;SDS011;53422;49.296;6.900;2022-09-25T02:02:51;10.13;;;4.80;;
66567;SDS011;53422;49.296;6.900;2022-09-25T02:05:25;9.90;;;5.15;;
66567;SDS011;53422;49.296;6.900;2022-09-25T02:11:03;12.02;;;5.32;;
66567;SDS011;53422;49.296;6.900;2022-09-25T02:13:33;12.30;;;5.07;;
66567;SDS011;53422;49.296;6.900;2022-09-25T02:16:05;9.75;;;4.78;;
66567;SDS011;53422;49.296;6.900;2022-09-25T02:18:35;11.38;;;5.43;;
66567;SDS011;53422;49.296;6.900;2022-09-25T02:26:43;9.15;;;4.75;;
66567;SDS011;53422;49.296;6.900;2022-09-25T02:29:09;10.30;;;4.93;;
66567;SDS011;53422;49.296;6.900;2022-09-25T02:31:35;9.05;;;4.85;;
66567;SDS011;53422;49.296;6.900;2022-09-25T02:34:05;9.15;;;5.68;;
66567;SDS011;53422;49.296;6.900;2022-09-25T02:36:31;9.90;;;5.20;;
66567;SDS011;53422;49.296;6.900;2022-09-25T02:38:58;9.98;;;5.47;;
66567;SDS011;53422;49.296;6.900;2022-09-25T02:47:07;10.00;;;5.75;;
66567;SDS011;53422;49.296;6.900;2022-09-25T02:50:02;12.88;;;6.63;;
66567;SDS011;53422;49.296;6.900;2022-09-25T02:58:51;11.80;;;5.75;;
66567;SDS011;53422;49.296;6.900;2022-09-25T03:01:21;12.43;;;5.72;;
66567;SDS011;53422;49.296;6.900;2022-09-25T03:03:50;10.50;;;5.97;;
66567;SDS011;53422;49.296;6.900;2022-09-25T03:06:19;10.02;;;4.78;;
66567;SDS011;53422;49.296;6.900;2022-09-25T03:08:47;9.55;;;5.28;;
66567;SDS011;53422;49.296;6.900;2022-09-25T03:11:17;12.30;;;6.05;;
66567;SDS011;53422;49.296;6.900;2022-09-25T03:13:45;11.57;;;5.95;;
66567;SDS011;53422;49.296;6.900;2022-09-25T03:16:30;10.23;;;5.43;;
66567;SDS011;53422;49.296;6.900;2022-09-25T03:19:04;12.43;;;6.15;;
66567;SDS011;53422;49.296;6.900;2022-09-25T03:21:30;12.43;;;6.53;;
66567;SDS011;53422;49.296;6.900;2022-09-25T03:23:56;13.20;;;6.38;;
66567;SDS011;53422;49.296;6.900;2022-09-25T03:26:23;12.68;;;6.93;;
66567;SDS011;53422;49.296;6.900;2022-09-25T03:28:51;12.80;;;6.18;;
66567;SDS011;53422;49.296;6.900;2022-09-25T03:31:17;10.13;;;5.55;;
66567;SDS011;53422;49.296;6.900;2022-09-25T03:33:43;10.10;;;5.85;;
66567;SDS011;53422;49.296;6.900;2022-09-25T03:36:16;15.50;;;7.20;;
66567;SDS011;53422;49.296;6.900;2022-09-25T03:38:45;12.23;;;6.40;;
66567;SDS011;53422;49.296;6.900;2022-09-25T03:41:12;12.40;;;6.15;;
66567;SDS011;53422;49.296;6.900;2022-09-25T03:43:40;11.95;;;6.45;;
66567;SDS011;53422;49.296;6.900;2022-09-25T03:46:08;13.05;;;6.70;;
66567;SDS011;53422;49.296;6.900;2022-09-25T03:48:36;10.32;;;6.13;;
66567;SDS011;53422;49.296;6.900;2022-09-25T03:51:02;12.10;;;6.28;;
66567;SDS011;53422;49.296;6.900;2022-09-25T03:53:28;10.18;;;5.03;;
66567;SDS011;53422;49.296;6.900;2022-09-25T03:55:57;11.85;;;6.50;;
66567;SDS011;53422;49.296;6.900;2022-09-25T03:58:31;11.40;;;6.38;;
66567;SDS011;53422;49.296;6.900;2022-09-25T04:00:57;12.88;;;6.95;;
66567;SDS011;53422;49.296;6.900;2022-09-25T04:03:23;11.20;;;6.90;;
66567;SDS011;53422;49.296;6.900;2022-09-25T04:05:51;9.98;;;5.90;;
66567;SDS011;53422;49.296;6.900;2022-09-25T04:08:17;13.00;;;6.47;;
66567;SDS011;53422;49.296;6.900;2022-09-25T04:10:43;13.18;;;6.90;;
66567;SDS011;53422;49.296;6.900;2022-09-25T04:13:08;10.20;;;6.15;;
66567;SDS011;53422;49.296;6.900;2022-09-25T04:15:40;11.48;;;6.32;;
66567;SDS011;53422;49.296;6.900;2022-09-25T04:18:07;12.98;;;6.45;;
66567;SDS011;53422;49.296;6.900;2022-09-25T04:20:33;12.93;;;6.88;;
66567;SDS011;53422;49.296;6.900;2022-09-25T04:22:59;12.75;;;6.03;;
66567;SDS011;53422;49.296;6.900;2022-09-25T04:25:25;10.95;;;5.63;;
66567;SDS011;53422;49.296;6.900;2022-09-25T04:27:51;11.10;;;6.38;;
66567;SDS011;53422;49.296;6.900;2022-09-25T04:30:19;13.95;;;7.45;;
66567;SDS011;53422;49.296;6.900;2022-09-25T04:32:46;11.38;;;6.07;;
66567;SDS011;53422;49.296;6.900;2022-09-25T04:35:30;12.65;;;6.60;;
66567;SDS011;53422;49.296;6.900;2022-09-25T04:37:55;11.30;;;6.53;;
66567;SDS011;53422;49.296;6.900;2022-09-25T04:40:21;10.40;;;6.38;;
66567;SDS011;53422;49.296;6.900;2022-09-25T04:42:47;14.43;;;6.45;;
66567;SDS011;53422;49.296;6.900;2022-09-25T04:45:12;11.05;;;6.22;;
66567;SDS011;53422;49.296;6.900;2022-09-25T04:47:38;10.90;;;6.32;;
66567;SDS011;53422;49.296;6.900;2022-09-25T04:50:04;10.52;;;6.30;;
66567;SDS011;53422;49.296;6.900;2022-09-25T04:52:30;14.35;;;6.93;;
66567;SDS011;53422;49.296;6.900;2022-09-25T04:54:56;11.40;;;5.68;;
66567;SDS011;53422;49.296;6.900;2022-09-25T04:57:21;11.13;;;6.00;;
66567;SDS011;53422;49.296;6.900;2022-09-25T04:59:48;12.80;;;6.35;;
66567;SDS011;53422;49.296;6.900;2022-09-25T05:02:15;11.95;;;5.93;;
66567;SDS011;53422;49.296;6.900;2022-09-25T05:04:40;12.07;;;5.85;;
66567;SDS011;53422;49.296;6.900;2022-09-25T05:07:06;11.63;;;6.50;;
66567;SDS011;53422;49.296;6.900;2022-09-25T05:09:32;12.45;;;5.72;;
66567;SDS011;53422;49.296;6.900;2022-09-25T05:11:58;10.68;;;6.13;;
66567;SDS011;53422;49.296;6.900;2022-09-25T05:14:23;8.90;;;5.65;;
66567;SDS011;53422;49.296;6.900;2022-09-25T05:16:50;10.38;;;6.35;;
66567;SDS011;53422;49.296;6.900;2022-09-25T05:19:15;11.23;;;6.07;;
66567;SDS011;53422;49.296;6.900;2022-09-25T05:21:41;9.30;;;5.50;;
66567;SDS011;53422;49.296;6.900;2022-09-25T05:24:07;9.98;;;5.88;;
66567;SDS011;53422;49.296;6.900;2022-09-25T05:26:36;11.07;;;5.75;;
66567;SDS011;53422;49.296;6.900;2022-09-25T05:29:03;11.65;;;6.20;;
66567;SDS011;53422;49.296;6.900;2022-09-25T05:31:29;11.30;;;6.40;;
66567;SDS011;53422;49.296;6.900;2022-09-25T05:33:56;9.52;;;6.10;;
66567;SDS011;53422;49.296;6.900;2022-09-25T05:36:22;10.57;;;6.10;;
66567;SDS011;53422;49.296;6.900;2022-09-25T05:38:47;12.07;;;6.00;;
66567;SDS011;53422;49.296;6.900;2022-09-25T05:41:13;11.05;;;5.45;;
66567;SDS011;53422;49.296;6.900;2022-09-25T05:43:43;11.35;;;5.97;;
66567;SDS011;53422;49.296;6.900;2022-09-25T05:46:13;10.65;;;6.18;;
66567;SDS011;53422;49.296;6.900;2022-09-25T05:48:39;9.43;;;5.93;;
66567;SDS011;53422;49.296;6.900;2022-09-25T05:51:05;10.25;;;5.78;;
66567;SDS011;53422;49.296;6.900;2022-09-25T05:53:31;12.80;;;6.63;;
66567;SDS011;53422;49.296;6.900;2022-09-25T05:55:57;13.88;;;6.55;;
66567;SDS011;53422;49.296;6.900;2022-09-25T05:58:25;12.57;;;6.95;;
66567;SDS011;53422;49.296;6.900;2022-09-25T06:00:52;14.80;;;6.72;;
66567;SDS011;53422;49.296;6.900;2022-09-25T06:03:19;13.52;;;6.72;;
66567;SDS011;53422;49.296;6.900;2022-09-25T06:05:45;10.30;;;5.50;;
66567;SDS011;53422;49.296;6.900;2022-09-25T06:08:11;11.50;;;6.80;;
66567;SDS011;53422;49.296;6.900;2022-09-25T06:10:38;11.63;;;6.15;;
66567;SDS011;53422;49.296;6.900;2022-09-25T06:13:04;11.05;;;6.25;;
66567;SDS011;53422;49.296;6.900;2022-09-25T06:15:33;12.27;;;6.13;;
66567;SDS011;53422;49.296;6.900;2022-09-25T06:18:02;12.52;;;6.18;;
66567;SDS011;53422;49.296;6.900;2022-09-25T06:20:28;12.90;;;6.38;;
66567;SDS011;53422;49.296;6.900;2022-09-25T06:22:54;9.52;;;5.95;;
66567;SDS011;53422;49.296;6.900;2022-09-25T06:25:21;11.18;;;6.03;;
66567;SDS011;53422;49.296;6.900;2022-09-25T06:27:50;12.27;;;6.30;;
66567;SDS011;53422;49.296;6.900;2022-09-25T06:30:17;11.80;;;5.90;;
66567;SDS011;53422;49.296;6.900;2022-09-25T06:32:44;10.95;;;5.40;;
66567;SDS011;53422;49.296;6.900;2022-09-25T06:35:09;9.57;;;5.57;;
66567;SDS011;53422;49.296;6.900;2022-09-25T06:37:35;12.02;;;6.93;;
66567;SDS011;53422;49.296;6.900;2022-09-25T06:40:00;11.40;;;6.30;;
66567;SDS011;53422;49.296;6.900;2022-09-25T06:42:26;10.27;;;5.72;;
66567;SDS011;53422;49.296;6.900;2022-09-25T06:44:52;10.68;;;5.88;;
66567;SDS011;53422;49.296;6.900;2022-09-25T06:47:17;10.98;;;5.85;;
66567;SDS011;53422;49.296;6.900;2022-09-25T06:49:43;11.60;;;5.95;;
66567;SDS011;53422;49.296;6.900;2022-09-25T06:52:10;11.43;;;6.10;;
66567;SDS011;53422;49.296;6.900;2022-09-25T06:54:36;10.32;;;5.00;;
66567;SDS011;53422;49.296;6.900;2022-09-25T06:57:01;13.05;;;7.00;;
66567;SDS011;53422;49.296;6.900;2022-09-25T06:59:27;12.48;;;6.60;;
66567;SDS011;53422;49.296;6.900;2022-09-25T07:01:53;12.10;;;6.70;;
66567;SDS011;53422;49.296;6.900;2022-09-25T07:04:18;12.57;;;7.00;;
66567;SDS011;53422;49.296;6.900;2022-09-25T07:06:44;11.27;;;6.85;;
66567;SDS011;53422;49.296;6.900;2022-09-25T07:09:11;11.80;;;6.22;;
66567;SDS011;53422;49.296;6.900;2022-09-25T07:11:36;11.02;;;6.25;;
66567;SDS011;53422;49.296;6.900;2022-09-25T07:14:02;9.82;;;5.80;;
66567;SDS011;53422;49.296;6.900;2022-09-25T07:16:28;13.75;;;7.22;;
66567;SDS011;53422;49.296;6.900;2022-09-25T07:18:57;12.10;;;6.20;;
66567;SDS011;53422;49.296;6.900;2022-09-25T07:21:24;16.50;;;6.68;;
66567;SDS011;53422;49.296;6.900;2022-09-25T07:23:51;13.32;;;6.30;;
66567;SDS011;53422;49.296;6.900;2022-09-25T07:26:18;12.52;;;6.35;;
66567;SDS011;53422;49.296;6.900;2022-09-25T07:28:55;10.60;;;5.50;;
66567;SDS011;53422;49.296;6.900;2022-09-25T07:31:24;11.00;;;5.85;;
66567;SDS011;53422;49.296;6.900;2022-09-25T07:33:52;11.70;;;5.40;;
66567;SDS011;53422;49.296;6.900;2022-09-25T07:36:18;10.95;;;5.57;;
66567;SDS011;53422;49.296;6.900;2022-09-25T07:38:51;12.00;;;6.28;;
66567;SDS011;53422;49.296;6.900;2022-09-25T07:41:17;10.60;;;5.95;;
66567;SDS011;53422;49.296;6.900;2022-09-25T07:43:44;9.20;;;5.85;;
66567;SDS011;53422;49.296;6.900;2022-09-25T07:46:10;11.30;;;6.10;;
66567;SDS011;53422;49.296;6.900;2022-09-25T07:48:36;9.30;;;5.40;;
66567;SDS011;53422;49.296;6.900;2022-09-25T07:51:06;11.77;;;5.82;;
66567;SDS011;53422;49.296;6.900;2022-09-25T07:53:33;9.48;;;5.75;;
66567;SDS011;53422;49.296;6.900;2022-09-25T07:55:59;10.68;;;5.60;;
66567;SDS011;53422;49.296;6.900;2022-09-25T07:58:26;10.82;;;6.10;;
66567;SDS011;53422;49.296;6.900;2022-09-25T08:00:53;8.52;;;4.63;;
66567;SDS011;53422;49.296;6.900;2022-09-25T08:03:22;12.35;;;5.93;;
66567;SDS011;53422;49.296;6.900;2022-09-25T08:05:52;11.43;;;5.72;;
66567;SDS011;53422;49.296;6.900;2022-09-25T08:08:26;12.10;;;6.18;;
66567;SDS011;53422;49.296;6.900;2022-09-25T08:10:53;12.07;;;5.80;;
66567;SDS011;53422;49.296;6.900;2022-09-25T08:13:23;10.82;;;5.63;;
66567;SDS011;53422;49.296;6.900;2022-09-25T08:15:49;9.68;;;5.45;;
66567;SDS011;53422;49.296;6.900;2022-09-25T08:18:15;10.05;;;5.10;;
66567;SDS011;53422;49.296;6.900;2022-09-25T08:20:41;10.27;;;5.35;;
66567;SDS011;53422;49.296;6.900;2022-09-25T08:23:07;11.32;;;5.32;;
66567;SDS011;53422;49.296;6.900;2022-09-25T08:25:32;10.68;;;5.47;;
66567;SDS011;53422;49.296;6.900;2022-09-25T08:27:58;10.65;;;5.70;;
66567;SDS011;53422;49.296;6.900;2022-09-25T08:30:24;10.98;;;5.50;;
66567;SDS011;53422;49.296;6.900;2022-09-25T08:32:49;10.48;;;5.53;;
66567;SDS011;53422;49.296;6.900;2022-09-25T08:35:16;11.70;;;5.82;;
66567;SDS011;53422;49.296;6.900;2022-09-25T08:37:42;12.88;;;6.00;;
66567;SDS011;53422;49.296;6.900;2022-09-25T08:40:21;10.52;;;5.40;;
66567;SDS011;53422;49.296;6.900;2022-09-25T08:42:51;11.68;;;5.70;;
66567;SDS011;53422;49.296;6.900;2022-09-25T08:48:14;13.23;;;6.22;;
66567;SDS011;53422;49.296;6.900;2022-09-25T08:51:03;13.00;;;6.05;;
66567;SDS011;53422;49.296;6.900;2022-09-25T08:53:30;14.30;;;6.63;;
66567;SDS011;53422;49.296;6.900;2022-09-25T08:55:57;20.02;;;10.23;;
66567;SDS011;53422;49.296;6.900;2022-09-25T08:58:40;12.98;;;5.72;;
66567;SDS011;53422;49.296;6.900;2022-09-25T09:01:11;13.90;;;6.88;;
66567;SDS011;53422;49.296;6.900;2022-09-25T09:06:31;8.48;;;4.53;;
66567;SDS011;53422;49.296;6.900;2022-09-25T09:09:03;9.77;;;4.57;;
66567;SDS011;53422;49.296;6.900;2022-09-25T09:11:38;8.48;;;4.00;;
66567;SDS011;53422;49.296;6.900;2022-09-25T09:14:12;5.80;;;3.33;;
66567;SDS011;53422;49.296;6.900;2022-09-25T09:16:42;9.48;;;4.30;;
66567;SDS011;53422;49.296;6.900;2022-09-25T09:19:10;8.48;;;3.55;;
66567;SDS011;53422;49.296;6.900;2022-09-25T09:21:38;6.68;;;3.60;;
66567;SDS011;53422;49.296;6.900;2022-09-25T09:24:14;5.43;;;3.05;;
66567;SDS011;53422;49.296;6.900;2022-09-25T09:29:35;6.18;;;3.17;;
66567;SDS011;53422;49.296;6.900;2022-09-25T09:34:56;4.30;;;2.72;;
66567;SDS011;53422;49.296;6.900;2022-09-25T09:38:15;7.38;;;2.25;;
66567;SDS011;53422;49.296;6.900;2022-09-25T09:49:17;3.83;;;1.90;;
66567;SDS011;53422;49.296;6.900;2022-09-25T09:54:33;3.10;;;1.92;;
66567;SDS011;53422;49.296;6.900;2022-09-25T09:57:09;2.50;;;1.33;;
66567;SDS011;53422;49.296;6.900;2022-09-25T09:59:49;2.38;;;1.58;;
66567;SDS011;53422;49.296;6.900;2022-09-25T10:05:01;2.80;;;1.58;;
66567;SDS011;53422;49.296;6.900;2022-09-25T10:07:32;2.30;;;1.45;;
66567;SDS011;53422;49.296;6.900;2022-09-25T10:10:04;3.30;;;1.77;;
66567;SDS011;53422;49.296;6.900;2022-09-25T10:12:38;4.43;;;1.60;;
66567;SDS011;53422;49.296;6.900;2022-09-25T10:18:20;1.90;;;0.80;;
66567;SDS011;53422;49.296;6.900;2022-09-25T10:23:37;2.20;;;1.60;;
66567;SDS011;53422;49.296;6.900;2022-09-25T10:26:38;1.50;;;1.10;;
66567;SDS011;53422;49.296;6.900;2022-09-25T10:31:58;2.47;;;1.40;;
66567;SDS011;53422;49.296;6.900;2022-09-25T10:34:27;2.33;;;1.65;;
66567;SDS011;53422;49.296;6.900;2022-09-25T10:36:55;1.95;;;1.35;;
66567;SDS011;53422;49.296;6.900;2022-09-25T10:41:58;1.40;;;0.80;;
66567;SDS011;53422;49.296;6.900;2022-09-25T10:47:25;1.60;;;1.02;;
66567;SDS011;53422;49.296;6.900;2022-09-25T10:50:13;2.10;;;1.25;;
66567;SDS011;53422;49.296;6.900;2022-09-25T10:52:46;1.08;;;0.70;;
66567;SDS011;53422;49.296;6.900;2022-09-25T10:55:33;1.73;;;0.82;;
66567;SDS011;53422;49.296;6.900;2022-09-25T10:58:18;1.58;;;1.00;;
66567;SDS011;53422;49.296;6.900;2022-09-25T11:03:17;1.92;;;1.15;;
66567;SDS011;53422;49.296;6.900;2022-09-25T11:05:58;1.60;;;0.90;;
66567;SDS011;53422;49.296;6.900;2022-09-25T11:08:28;1.60;;;0.88;;
66567;SDS011;53422;49.296;6.900;2022-09-25T11:11:00;1.45;;;1.08;;
66567;SDS011;53422;49.296;6.900;2022-09-25T11:13:43;2.40;;;1.08;;
66567;SDS011;53422;49.296;6.900;2022-09-25T11:16:11;1.88;;;1.33;;
66567;SDS011;53422;49.296;6.900;2022-09-25T11:26:39;1.10;;;0.88;;
66567;SDS011;53422;49.296;6.900;2022-09-25T11:29:21;2.03;;;1.52;;
66567;SDS011;53422;49.296;6.900;2022-09-25T11:31:53;1.33;;;1.00;;
66567;SDS011;53422;49.296;6.900;2022-09-25T11:39:37;2.65;;;1.38;;
66567;SDS011;53422;49.296;6.900;2022-09-25T11:47:35;1.60;;;1.30;;
66567;SDS011;53422;49.296;6.900;2022-09-25T11:55:35;1.42;;;1.10;;
66567;SDS011;53422;49.296;6.900;2022-09-25T12:23:28;4.07;;;1.75;;
66567;SDS011;53422;49.296;6.900;2022-09-25T12:28:42;1.75;;;1.38;;
66567;SDS011;53422;49.296;6.900;2022-09-25T12:36:59;2.03;;;1.25;;
66567;SDS011;53422;49.296;6.900;2022-09-25T12:39:46;3.22;;;1.70;;
66567;SDS011;53422;49.296;6.900;2022-09-25T12:47:50;2.35;;;1.80;;
66567;SDS011;53422;49.296;6.900;2022-09-25T12:50:26;2.38;;;1.70;;
66567;SDS011;53422;49.296;6.900;2022-09-25T12:53:19;2.28;;;1.83;;
66567;SDS011;53422;49.296;6.900;2022-09-25T12:56:12;3.65;;;1.80;;
66567;SDS011;53422;49.296;6.900;2022-09-25T13:06:45;4.20;;;2.45;;
66567;SDS011;53422;49.296;6.900;2022-09-25T13:09:28;3.95;;;2.25;;
66567;SDS011;53422;49.296;6.900;2022-09-25T13:12:03;3.00;;;1.70;;
66567;SDS011;53422;49.296;6.900;2022-09-25T13:14:36;2.72;;;1.88;;
66567;SDS011;53422;49.296;6.900;2022-09-25T13:17:09;3.67;;;1.60;;
66567;SDS011;53422;49.296;6.900;2022-09-25T13:19:36;3.10;;;2.47;;
66567;SDS011;53422;49.296;6.900;2022-09-25T13:22:06;6.97;;;2.13;;
66567;SDS011;53422;49.296;6.900;2022-09-25T13:24:37;2.85;;;1.73;;
66567;SDS011;53422;49.296;6.900;2022-09-25T13:27:08;3.60;;;2.17;;
66567;SDS011;53422;49.296;6.900;2022-09-25T13:29:39;4.07;;;2.58;;
66567;SDS011;53422;49.296;6.900;2022-09-25T13:34:42;6.88;;;2.63;;
66567;SDS011;53422;49.296;6.900;2022-09-25T13:37:09;4.88;;;2.30;;
66567;SDS011;53422;49.296;6.900;2022-09-25T13:39:46;5.05;;;2.90;;
66567;SDS011;53422;49.296;6.900;2022-09-25T13:42:40;3.28;;;2.25;;
66567;SDS011;53422;49.296;6.900;2022-09-25T13:50:33;4.15;;;2.30;;
66567;SDS011;53422;49.296;6.900;2022-09-25T13:53:23;5.55;;;2.42;;
66567;SDS011;53422;49.296;6.900;2022-09-25T13:58:22;4.32;;;2.88;;
66567;SDS011;53422;49.296;6.900;2022-09-25T14:00:50;4.50;;;2.10;;
66567;SDS011;53422;49.296;6.900;2022-09-25T14:06:18;2.50;;;1.90;;
66567;SDS011;53422;49.296;6.900;2022-09-25T14:08:47;3.35;;;2.10;;
66567;SDS011;53422;49.296;6.900;2022-09-25T14:11:15;4.47;;;1.67;;
66567;SDS011;53422;49.296;6.900;2022-09-25T14:13:44;3.13;;;2.15;;
66567;SDS011;53422;49.296;6.900;2022-09-25T14:16:28;2.97;;;2.20;;
66567;SDS011;53422;49.296;6.900;2022-09-25T14:19:01;4.50;;;3.13;;
66567;SDS011;53422;49.296;6.900;2022-09-25T14:21:28;3.28;;;2.28;;
66567;SDS011;53422;49.296;6.900;2022-09-25T14:24:10;3.20;;;1.60;;
66567;SDS011;53422;49.296;6.900;2022-09-25T14:26:43;2.00;;;1.33;;
66567;SDS011;53422;49.296;6.900;2022-09-25T14:29:13;5.43;;;1.98;;
66567;SDS011;53422;49.296;6.900;2022-09-25T14:31:59;4.07;;;1.95;;
66567;SDS011;53422;49.296;6.900;2022-09-25T14:45:20;3.83;;;1.67;;
66567;SDS011;53422;49.296;6.900;2022-09-25T14:47:49;4.38;;;1.92;;
66567;SDS011;53422;49.296;6.900;2022-09-25T14:50:21;2.58;;;1.33;;
66567;SDS011;53422;49.296;6.900;2022-09-25T14:52:53;5.15;;;1.80;;
66567;SDS011;53422;49.296;6.900;2022-09-25T14:55:23;2.03;;;1.50;;
66567;SDS011;53422;49.296;6.900;2022-09-25T14:57:52;4.53;;;1.98;;
66567;SDS011;53422;49.296;6.900;2022-09-25T15:00:22;4.38;;;1.88;;
66567;SDS011;53422;49.296;6.900;2022-09-25T15:02:48;3.42;;;1.70;;
66567;SDS011;53422;49.296;6.900;2022-09-25T15:07:48;5.22;;;1.77;;
66567;SDS011;53422;49.296;6.900;2022-09-25T15:15:37;3.58;;;1.63;;
66567;SDS011;53422;49.296;6.900;2022-09-25T15:18:05;2.00;;;1.40;;
66567;SDS011;53422;49.296;6.900;2022-09-25T15:20:36;3.40;;;1.70;;
66567;SDS011;53422;49.296;6.900;2022-09-25T15:23:15;3.60;;;1.50;;
66567;SDS011;53422;49.296;6.900;2022-09-25T15:25:46;3.53;;;1.85;;
66567;SDS011;53422;49.296;6.900;2022-09-25T15:28:15;3.33;;;1.65;;
66567;SDS011;53422;49.296;6.900;2022-09-25T15:30:43;3.17;;;1.75;;
66567;SDS011;53422;49.296;6.900;2022-09-25T15:33:20;2.45;;;1.83;;
66567;SDS011;53422;49.296;6.900;2022-09-25T15:35:54;4.53;;;1.88;;
66567;SDS011;53422;49.296;6.900;2022-09-25T15:38:27;3.22;;;2.30;;
66567;SDS011;53422;49.296;6.900;2022-09-25T15:40:53;2.83;;;1.52;;
66567;SDS011;53422;49.296;6.900;2022-09-25T15:43:20;3.85;;;1.90;;
66567;SDS011;53422;49.296;6.900;2022-09-25T15:50:58;2.78;;;1.75;;
66567;SDS011;53422;49.296;6.900;2022-09-25T15:56:01;4.25;;;1.85;;
66567;SDS011;53422;49.296;6.900;2022-09-25T15:58:29;2.83;;;1.02;;
66567;SDS011;53422;49.296;6.900;2022-09-25T16:01:00;4.75;;;1.90;;
66567;SDS011;53422;49.296;6.900;2022-09-25T16:03:47;4.03;;;2.45;;
66567;SDS011;53422;49.296;6.900;2022-09-25T16:06:40;4.85;;;2.28;;
66567;SDS011;53422;49.296;6.900;2022-09-25T16:09:08;3.42;;;2.10;;
66567;SDS011;53422;49.296;6.900;2022-09-25T16:11:34;6.97;;;2.20;;
66567;SDS011;53422;49.296;6.900;2022-09-25T16:14:25;4.10;;;1.60;;
66567;SDS011;53422;49.296;6.900;2022-09-25T16:16:55;3.25;;;1.75;;
66567;SDS011;53422;49.296;6.900;2022-09-25T16:19:26;4.55;;;2.15;;
66567;SDS011;53422;49.296;6.900;2022-09-25T16:21:57;4.50;;;2.03;;
66567;SDS011;53422;49.296;6.900;2022-09-25T16:24:25;3.83;;;1.67;;
66567;SDS011;53422;49.296;6.900;2022-09-25T16:31:50;6.13;;;1.85;;
66567;SDS011;53422;49.296;6.900;2022-09-25T16:34:26;4.43;;;1.95;;
66567;SDS011;53422;49.296;6.900;2022-09-25T16:37:01;5.25;;;2.05;;
66567;SDS011;53422;49.296;6.900;2022-09-25T16:39:35;3.70;;;2.00;;
66567;SDS011;53422;49.296;6.900;2022-09-25T16:44:46;2.40;;;1.27;;
66567;SDS011;53422;49.296;6.900;2022-09-25T16:47:19;3.15;;;2.08;;
66567;SDS011;53422;49.296;6.900;2022-09-25T16:49:46;3.95;;;2.08;;
66567;SDS011;53422;49.296;6.900;2022-09-25T16:52:17;3.50;;;1.67;;
66567;SDS011;53422;49.296;6.900;2022-09-25T16:54:49;4.45;;;2.08;;
66567;SDS011;53422;49.296;6.900;2022-09-25T16:57:18;6.03;;;2.65;;
66567;SDS011;53422;49.296;6.900;2022-09-25T16:59:48;4.68;;;1.88;;
66567;SDS011;53422;49.296;6.900;2022-09-25T17:02:19;2.95;;;2.00;;
66567;SDS011;53422;49.296;6.900;2022-09-25T17:04:45;4.57;;;1.90;;
66567;SDS011;53422;49.296;6.900;2022-09-25T17:07:11;5.40;;;2.03;;
66567;SDS011;53422;49.296;6.900;2022-09-25T17:09:36;4.18;;;2.03;;
66567;SDS011;53422;49.296;6.900;2022-09-25T17:12:03;4.75;;;2.25;;
66567;SDS011;53422;49.296;6.900;2022-09-25T17:14:35;4.05;;;2.03;;
66567;SDS011;53422;49.296;6.900;2022-09-25T17:17:01;3.13;;;2.33;;
66567;SDS011;53422;49.296;6.900;2022-09-25T17:19:26;5.82;;;2.00;;
66567;SDS011;53422;49.296;6.900;2022-09-25T17:21:52;4.15;;;2.10;;
66567;SDS011;53422;49.296;6.900;2022-09-25T17:24:19;7.63;;;2.70;;
66567;SDS011;53422;49.296;6.900;2022-09-25T17:26:47;8.18;;;2.65;;
66567;SDS011;53422;49.296;6.900;2022-09-25T17:29:15;4.32;;;2.30;;
66567;SDS011;53422;49.296;6.900;2022-09-25T17:31:41;6.60;;;2.25;;
66567;SDS011;53422;49.296;6.900;2022-09-25T17:34:15;5.82;;;2.60;;
66567;SDS011;53422;49.296;6.900;2022-09-25T17:36:42;7.18;;;2.35;;
66567;SDS011;53422;49.296;6.900;2022-09-25T17:39:08;6.28;;;2.47;;
66567;SDS011;53422;49.296;6.900;2022-09-25T17:41:34;5.90;;;2.45;;
66567;SDS011;53422;49.296;6.900;2022-09-25T17:44:01;5.40;;;2.85;;
66567;SDS011;53422;49.296;6.900;2022-09-25T17:46:28;7.97;;;4.68;;
66567;SDS011;53422;49.296;6.900;2022-09-25T17:48:57;19.05;;;9.05;;
66567;SDS011;53422;49.296;6.900;2022-09-25T17:51:24;55.67;;;25.55;;
66567;SDS011;53422;49.296;6.900;2022-09-25T17:53:51;42.00;;;17.92;;
66567;SDS011;53422;49.296;6.900;2022-09-25T17:56:17;16.27;;;6.63;;
66567;SDS011;53422;49.296;6.900;2022-09-25T17:58:43;12.90;;;5.38;;
66567;SDS011;53422;49.296;6.900;2022-09-25T18:01:12;22.52;;;8.88;;
66567;SDS011;53422;49.296;6.900;2022-09-25T18:03:56;13.35;;;6.32;;
66567;SDS011;53422;49.296;6.900;2022-09-25T18:06:23;12.77;;;5.90;;
66567;SDS011;53422;49.296;6.900;2022-09-25T18:08:50;9.82;;;4.70;;
66567;SDS011;53422;49.296;6.900;2022-09-25T18:11:17;9.60;;;4.15;;
66567;SDS011;53422;49.296;6.900;2022-09-25T18:13:43;11.70;;;4.97;;
66567;SDS011;53422;49.296;6.900;2022-09-25T18:16:13;10.65;;;4.50;;
66567;SDS011;53422;49.296;6.900;2022-09-25T18:18:42;9.68;;;4.35;;